Time;durP1;ratioP1;P1;durP2;ratioP2;P2;SDS_P1;SDS_P2;PMS_P1;PMS_P2;Temp;Humidity;BMP_temperature;BMP_pressure;BME280_temperature;BME280_humidity;BME280_pressure;Samples;Min_cycle;Max_cycle;Signal;HPM_P1;HPM_P2
2022/02/22 00:01:24;;;;;;;8.68;1.88;;;;;12.30;101475.00;;;;5065187;28;20191;-86
2022/02/22 00:03:52;;;;;;;6.32;1.77;;;;;12.30;101499.00;;;;5061836;28;20220;-87
2022/02/22 00:06:20;;;;;;;6.93;1.67;;;;;12.30;101496.00;;;;5032464;28;20200;-87
2022/02/22 00:08:47;;;;;;;8.55;1.52;;;;;12.30;101492.00;;;;5031568;28;20189;-87
2022/02/22 00:11:14;;;;;;;11.55;2.55;;;;;12.30;101494.00;;;;5048209;28;20207;-87
2022/02/22 00:13:41;;;;;;;6.47;1.35;;;;;12.30;101501.00;;;;5044162;28;20200;-87
2022/02/22 00:16:09;;;;;;;9.07;1.70;;;;;12.30;101506.00;;;;5050696;28;20588;-87
2022/02/22 00:18:36;;;;;;;10.10;2.00;;;;;12.20;101497.00;;;;5040276;28;20881;-87
2022/02/22 00:21:05;;;;;;;9.77;1.77;;;;;12.20;101516.00;;;;5038303;28;20203;-86
2022/02/22 00:23:32;;;;;;;7.65;1.40;;;;;12.20;101512.00;;;;5014618;28;20216;-87
2022/02/22 00:25:59;;;;;;;14.20;2.40;;;;;12.10;101504.00;;;;5011324;28;20197;-87
2022/02/22 00:28:27;;;;;;;11.38;1.77;;;;;12.10;101501.00;;;;5012901;28;20638;-85
2022/02/22 00:30:54;;;;;;;9.23;2.33;;;;;12.10;101514.00;;;;5011142;28;20243;-86
2022/02/22 00:33:21;;;;;;;6.82;1.50;;;;;12.10;101522.00;;;;5011100;28;20197;-86
2022/02/22 00:35:49;;;;;;;7.85;1.63;;;;;12.10;101527.00;;;;5016346;28;20205;-86
2022/02/22 00:38:19;;;;;;;7.47;1.40;;;;;12.00;101537.00;;;;5029843;28;20197;-86
2022/02/22 00:40:46;;;;;;;16.00;2.08;;;;;12.00;101560.00;;;;5010727;28;20663;-85
2022/02/22 00:43:13;;;;;;;8.13;1.67;;;;;12.00;101547.00;;;;5017522;28;20239;-87
2022/02/22 00:45:40;;;;;;;10.85;2.40;;;;;12.00;101551.00;;;;5031653;28;20204;-86
2022/02/22 00:48:08;;;;;;;13.85;2.88;;;;;11.90;101547.00;;;;5022478;28;20201;-86
2022/02/22 00:50:35;;;;;;;8.25;1.25;;;;;11.90;101550.00;;;;5028663;28;20211;-86
2022/02/22 00:53:03;;;;;;;13.50;2.03;;;;;11.90;101559.00;;;;5027817;28;20212;-86
2022/02/22 00:55:32;;;;;;;9.93;2.53;;;;;11.90;101564.00;;;;5011166;28;20193;-86
2022/02/22 00:57:59;;;;;;;7.95;1.25;;;;;11.80;101566.00;;;;5019112;28;20193;-87
2022/02/22 01:00:27;;;;;;;13.43;1.70;;;;;11.80;101572.00;;;;5018732;28;20192;-86
2022/02/22 01:02:54;;;;;;;5.85;1.42;;;;;11.80;101577.00;;;;5029228;28;20227;-86
2022/02/22 01:05:21;;;;;;;11.38;1.90;;;;;11.80;101570.00;;;;5030913;28;20197;-87
2022/02/22 01:07:48;;;;;;;6.97;1.63;;;;;11.80;101567.00;;;;5030475;28;20199;-87
2022/02/22 01:10:16;;;;;;;5.40;1.70;;;;;11.80;101572.00;;;;5029548;28;20192;-85
2022/02/22 01:12:44;;;;;;;11.05;1.92;;;;;11.80;101570.00;;;;5027390;28;20215;-87
2022/02/22 01:15:12;;;;;;;11.75;2.85;;;;;11.90;101567.00;;;;5018839;28;21065;-86
2022/02/22 01:17:39;;;;;;;8.95;2.05;;;;;11.80;101578.00;;;;5034534;28;20228;-86
2022/02/22 01:20:09;;;;;;;4.20;1.08;;;;;11.80;101585.00;;;;5030322;28;20200;-86
2022/02/22 01:22:37;;;;;;;6.80;1.98;;;;;11.80;101575.00;;;;5049505;28;20204;-86
2022/02/22 01:25:05;;;;;;;6.80;1.85;;;;;11.80;101582.00;;;;5029952;28;20223;-86
2022/02/22 01:27:33;;;;;;;12.27;1.95;;;;;11.80;101584.00;;;;5034367;28;20199;-86
2022/02/22 01:30:02;;;;;;;6.03;1.48;;;;;11.80;101582.00;;;;5036049;28;20183;-86
2022/02/22 01:32:30;;;;;;;6.80;1.77;;;;;11.80;101592.00;;;;5031300;28;20208;-86
2022/02/22 01:34:57;;;;;;;14.57;1.58;;;;;11.70;101591.00;;;;5029714;28;20204;-86
2022/02/22 01:37:25;;;;;;;5.85;1.10;;;;;11.70;101605.00;;;;5047547;28;20561;-85
2022/02/22 01:39:52;;;;;;;4.10;1.45;;;;;11.70;101598.00;;;;5047268;28;20199;-86
2022/02/22 01:42:23;;;;;;;9.35;1.45;;;;;11.70;101595.00;;;;5041775;28;20203;-85
2022/02/22 01:44:51;;;;;;;4.13;1.05;;;;;11.70;101587.00;;;;5037738;28;20228;-85
2022/02/22 01:47:20;;;;;;;9.77;1.63;;;;;11.60;101592.00;;;;5041782;28;20193;-86
2022/02/22 01:49:48;;;;;;;9.25;1.75;;;;;11.60;101590.00;;;;5030001;28;20215;-85
2022/02/22 01:52:15;;;;;;;10.57;1.70;;;;;11.60;101601.00;;;;5035535;28;20195;-86
2022/02/22 01:54:43;;;;;;;7.53;2.08;;;;;11.60;101595.00;;;;5032948;28;20280;-86
2022/02/22 01:57:10;;;;;;;8.23;1.52;;;;;11.50;101606.00;;;;5038959;28;20196;-86
2022/02/22 01:59:38;;;;;;;14.38;2.38;;;;;11.50;101615.00;;;;5030182;28;20196;-86
2022/02/22 02:02:06;;;;;;;9.50;1.70;;;;;11.50;101597.00;;;;5029563;28;20203;-86
2022/02/22 02:04:34;;;;;;;7.65;1.85;;;;;11.40;101592.00;;;;5042803;28;20219;-86
2022/02/22 02:07:02;;;;;;;5.88;1.50;;;;;11.40;101598.00;;;;5035732;28;20214;-87
2022/02/22 02:09:29;;;;;;;11.30;1.58;;;;;11.40;101604.00;;;;5035136;28;20204;-85
2022/02/22 02:11:59;;;;;;;9.00;1.60;;;;;11.40;101601.00;;;;5048585;28;20576;-86
2022/02/22 02:14:27;;;;;;;8.93;2.08;;;;;11.30;101597.00;;;;5047169;28;20204;-85
2022/02/22 02:16:57;;;;;;;7.40;1.58;;;;;11.30;101616.00;;;;5033247;28;20184;-85
2022/02/22 02:19:24;;;;;;;11.02;1.30;;;;;11.30;101615.00;;;;5048358;28;20196;-85
2022/02/22 02:21:57;;;;;;;4.70;1.15;;;;;11.30;101612.00;;;;5056287;28;20198;-86
2022/02/22 02:24:26;;;;;;;10.93;1.95;;;;;11.20;101601.00;;;;5049839;28;20219;-85
2022/02/22 02:26:55;;;;;;;7.10;0.82;;;;;11.20;101606.00;;;;5030108;28;20196;-86
2022/02/22 02:29:25;;;;;;;7.38;1.90;;;;;11.10;101605.00;;;;5047020;28;20675;-86
2022/02/22 02:31:53;;;;;;;5.68;1.60;;;;;11.10;101609.00;;;;5030663;28;20210;-85
2022/02/22 02:34:22;;;;;;;8.38;1.88;;;;;11.10;101599.00;;;;5036567;28;20650;-85
2022/02/22 02:36:50;;;;;;;10.00;2.00;;;;;11.00;101606.00;;;;5044337;28;20615;-86
2022/02/22 02:39:19;;;;;;;9.75;1.55;;;;;11.00;101602.00;;;;5029085;28;20196;-85
2022/02/22 02:41:47;;;;;;;8.82;2.30;;;;;11.00;101598.00;;;;5028869;28;20192;-85
2022/02/22 02:44:18;;;;;;;7.55;1.20;;;;;10.90;101602.00;;;;5041023;28;20231;-86
2022/02/22 02:46:46;;;;;;;4.95;1.13;;;;;10.90;101597.00;;;;5045618;28;20199;-86
2022/02/22 02:49:15;;;;;;;8.18;1.30;;;;;10.90;101596.00;;;;5041335;28;20200;-86
2022/02/22 02:51:43;;;;;;;6.25;1.63;;;;;10.90;101595.00;;;;5050023;28;20211;-85
2022/02/22 02:54:11;;;;;;;6.93;1.85;;;;;10.80;101594.00;;;;5033735;28;20554;-85
2022/02/22 02:56:40;;;;;;;10.88;1.98;;;;;10.80;101613.00;;;;5029022;28;20185;-86
2022/02/22 02:59:09;;;;;;;7.47;1.83;;;;;10.80;101603.00;;;;5030023;28;20400;-85
2022/02/22 03:01:38;;;;;;;6.18;1.42;;;;;10.80;101605.00;;;;5043004;28;20199;-86
2022/02/22 03:04:06;;;;;;;8.85;1.48;;;;;10.80;101608.00;;;;5039330;28;20215;-85
2022/02/22 03:06:33;;;;;;;13.93;1.67;;;;;10.80;101606.00;;;;5052284;28;20207;-85
2022/02/22 03:09:01;;;;;;;4.07;0.90;;;;;10.80;101605.00;;;;5041343;28;20196;-85
2022/02/22 03:11:28;;;;;;;7.00;1.92;;;;;10.80;101600.00;;;;5033066;28;20196;-85
2022/02/22 03:13:57;;;;;;;6.60;1.23;;;;;10.80;101599.00;;;;5033439;28;20199;-86
2022/02/22 03:16:24;;;;;;;10.90;1.77;;;;;10.80;101600.00;;;;5041694;28;20196;-86
2022/02/22 03:18:52;;;;;;;6.40;1.20;;;;;10.80;101604.00;;;;5049111;28;20226;-86
2022/02/22 03:21:20;;;;;;;7.38;1.30;;;;;10.80;101605.00;;;;5068981;28;20198;-86
2022/02/22 03:23:47;;;;;;;8.23;1.40;;;;;10.80;101598.00;;;;5033124;28;20220;-86
2022/02/22 03:26:15;;;;;;;10.88;1.40;;;;;10.80;101602.00;;;;5036092;28;20203;-86
2022/02/22 03:28:42;;;;;;;8.55;1.77;;;;;10.80;101606.00;;;;5048194;28;20199;-86
2022/02/22 03:31:11;;;;;;;9.93;1.08;;;;;10.80;101619.00;;;;5042712;28;20208;-85
2022/02/22 03:33:38;;;;;;;9.73;2.33;;;;;10.80;101607.00;;;;5032086;28;20200;-85
2022/02/22 03:36:06;;;;;;;6.93;1.15;;;;;10.80;101607.00;;;;5031673;28;20204;-86
2022/02/22 03:38:33;;;;;;;10.35;1.63;;;;;10.80;101608.00;;;;5039615;28;20697;-85
2022/02/22 03:41:02;;;;;;;10.57;1.50;;;;;10.80;101606.00;;;;5037226;28;20198;-85
2022/02/22 03:43:29;;;;;;;6.22;1.15;;;;;10.80;101609.00;;;;5050446;28;20246;-86
2022/02/22 03:45:57;;;;;;;8.68;1.17;;;;;10.80;101609.00;;;;5036898;28;20200;-86
2022/02/22 03:48:25;;;;;;;6.63;1.77;;;;;10.80;101615.00;;;;5045895;28;20192;-85
2022/02/22 03:50:53;;;;;;;7.50;1.70;;;;;10.80;101622.00;;;;5051184;28;20192;-86
2022/02/22 03:53:21;;;;;;;7.32;1.02;;;;;10.80;101625.00;;;;5050767;28;20199;-85
2022/02/22 03:55:49;;;;;;;9.98;1.85;;;;;10.80;101609.00;;;;5040505;28;20192;-86
2022/02/22 03:58:17;;;;;;;6.10;1.23;;;;;10.90;101630.00;;;;5047032;28;20192;-85
2022/02/22 04:00:44;;;;;;;10.52;2.05;;;;;10.90;101624.00;;;;5051471;28;20208;-86
2022/02/22 04:03:12;;;;;;;8.18;1.63;;;;;10.90;101616.00;;;;5045861;28;20199;-85
2022/02/22 04:05:42;;;;;;;8.27;1.70;;;;;10.90;101621.00;;;;5031940;28;20223;-86
2022/02/22 04:08:10;;;;;;;4.45;1.30;;;;;10.90;101613.00;;;;5034165;28;20722;-85
2022/02/22 04:10:37;;;;;;;6.93;1.50;;;;;10.90;101622.00;;;;5050051;28;20192;-85
2022/02/22 04:13:04;;;;;;;8.18;1.48;;;;;10.90;101622.00;;;;5041792;28;20934;-85
2022/02/22 04:15:31;;;;;;;5.60;0.98;;;;;10.90;101620.00;;;;5031122;28;20203;-84
2022/02/22 04:17:59;;;;;;;7.80;1.20;;;;;10.90;101633.00;;;;5031678;28;20228;-86
2022/02/22 04:20:26;;;;;;;10.68;1.67;;;;;10.90;101639.00;;;;5031881;28;20596;-85
2022/02/22 04:22:55;;;;;;;6.07;0.88;;;;;10.90;101641.00;;;;5047685;28;20200;-85
2022/02/22 04:25:22;;;;;;;6.38;1.30;;;;;10.90;101638.00;;;;5031666;28;20223;-85
2022/02/22 04:27:50;;;;;;;7.60;1.50;;;;;10.90;101631.00;;;;5034042;28;20196;-85
2022/02/22 04:30:17;;;;;;;10.75;1.60;;;;;10.80;101640.00;;;;5050600;28;20203;-85
2022/02/22 04:32:46;;;;;;;5.65;1.02;;;;;10.80;101641.00;;;;5031218;28;20203;-85
2022/02/22 04:35:13;;;;;;;7.35;1.95;;;;;10.80;101631.00;;;;5048992;28;20568;-85
2022/02/22 04:37:42;;;;;;;6.13;1.30;;;;;10.80;101629.00;;;;5050278;28;20226;-85
2022/02/22 04:40:11;;;;;;;5.60;1.48;;;;;10.70;101639.00;;;;5051012;28;20197;-85
2022/02/22 04:42:38;;;;;;;6.93;1.48;;;;;10.70;101629.00;;;;5035139;28;20188;-85
2022/02/22 04:45:07;;;;;;;7.28;1.13;;;;;10.70;101628.00;;;;5049670;28;20243;-84
2022/02/22 04:47:35;;;;;;;7.32;1.67;;;;;10.70;101631.00;;;;5047804;28;20843;-85
2022/02/22 04:50:03;;;;;;;10.32;1.42;;;;;10.70;101633.00;;;;5038511;28;20200;-85
2022/02/22 04:52:30;;;;;;;5.30;1.23;;;;;10.70;101641.00;;;;5050226;28;20200;-85
2022/02/22 04:54:59;;;;;;;5.90;1.60;;;;;10.60;101634.00;;;;5048474;28;20210;-85
2022/02/22 04:57:27;;;;;;;8.15;1.52;;;;;10.60;101635.00;;;;5035395;28;20701;-85
2022/02/22 04:59:54;;;;;;;8.05;1.70;;;;;10.60;101634.00;;;;5030600;28;20189;-85
2022/02/22 05:02:22;;;;;;;8.32;1.00;;;;;10.50;101639.00;;;;5030990;28;20553;-86
2022/02/22 05:04:49;;;;;;;9.00;1.45;;;;;10.50;101630.00;;;;5036514;28;20219;-85
2022/02/22 05:07:16;;;;;;;5.82;1.05;;;;;10.50;101645.00;;;;5033693;28;20196;-86
2022/02/22 05:09:44;;;;;;;7.85;1.42;;;;;10.50;101637.00;;;;5045146;28;20188;-84
2022/02/22 05:12:11;;;;;;;7.13;1.10;;;;;10.50;101630.00;;;;5040648;28;20207;-86
2022/02/22 05:14:40;;;;;;;5.90;1.20;;;;;10.40;101640.00;;;;5049800;28;20191;-86
2022/02/22 05:17:07;;;;;;;9.40;1.65;;;;;10.40;101643.00;;;;5047808;28;20232;-86
2022/02/22 05:19:34;;;;;;;8.45;1.65;;;;;10.40;101640.00;;;;5033138;28;20211;-86
2022/02/22 05:22:02;;;;;;;5.72;0.95;;;;;10.40;101635.00;;;;5033455;28;20589;-86
2022/02/22 05:24:29;;;;;;;4.72;1.15;;;;;10.30;101640.00;;;;5046960;28;20223;-86
2022/02/22 05:26:56;;;;;;;4.97;1.20;;;;;10.30;101639.00;;;;5045978;28;20196;-86
2022/02/22 05:29:23;;;;;;;5.68;1.25;;;;;10.30;101635.00;;;;5049584;28;20654;-86
2022/02/22 05:31:53;;;;;;;7.22;1.55;;;;;10.20;101636.00;;;;5045846;28;20192;-86
2022/02/22 05:34:20;;;;;;;5.43;1.05;;;;;10.20;101647.00;;;;5040740;28;20196;-86
2022/02/22 05:36:50;;;;;;;7.28;0.88;;;;;10.20;101639.00;;;;5041353;28;20743;-85
2022/02/22 05:39:18;;;;;;;7.95;1.02;;;;;10.20;101627.00;;;;5051972;28;21001;-86
2022/02/22 05:41:45;;;;;;;4.47;1.10;;;;;10.20;101642.00;;;;5031872;28;20188;-86
2022/02/22 05:44:12;;;;;;;4.75;1.02;;;;;10.10;101644.00;;;;5033217;28;20219;-86
2022/02/22 05:46:40;;;;;;;6.75;1.30;;;;;10.10;101641.00;;;;5039930;28;20700;-85
2022/02/22 05:49:08;;;;;;;7.25;1.25;;;;;10.10;101631.00;;;;5048907;28;20202;-86
2022/02/22 05:51:36;;;;;;;3.20;0.95;;;;;10.00;101628.00;;;;5041207;28;20280;-86
2022/02/22 05:54:03;;;;;;;5.38;1.17;;;;;10.00;101631.00;;;;5044439;28;20211;-87
2022/02/22 05:56:30;;;;;;;6.65;1.17;;;;;10.00;101623.00;;;;5031020;28;20192;-85
2022/02/22 05:59:02;;;;;;;6.55;1.98;;;;;10.00;101620.00;;;;5031910;28;20196;-86
2022/02/22 06:01:33;;;;;;;5.90;1.27;;;;;9.90;101625.00;;;;5054857;28;20596;-84
2022/02/22 06:04:00;;;;;;;4.35;1.30;;;;;9.90;101631.00;;;;5061844;28;20196;-84
2022/02/22 06:06:30;;;;;;;5.38;1.00;;;;;9.90;101633.00;;;;5030752;28;20231;-85
2022/02/22 06:08:57;;;;;;;5.03;0.98;;;;;9.90;101634.00;;;;5046905;28;20188;-81
2022/02/22 06:11:25;;;;;;;5.15;1.40;;;;;9.90;101638.00;;;;5036993;28;20200;-82
2022/02/22 06:13:53;;;;;;;4.18;1.00;;;;;9.90;101617.00;;;;5038849;28;20196;-84
2022/02/22 06:16:20;;;;;;;7.35;1.52;;;;;9.80;101607.00;;;;5032513;28;20196;-81
2022/02/22 06:18:48;;;;;;;3.58;0.80;;;;;9.80;101617.00;;;;5036583;28;20786;-82
2022/02/22 06:21:15;;;;;;;5.55;1.30;;;;;9.80;101614.00;;;;5034701;28;20204;-81
2022/02/22 06:23:44;;;;;;;7.70;1.35;;;;;9.80;101613.00;;;;5037928;28;20207;-82
2022/02/22 06:26:11;;;;;;;4.22;0.82;;;;;9.80;101617.00;;;;5040192;28;20892;-83
2022/02/22 06:28:39;;;;;;;9.02;1.35;;;;;9.80;101617.00;;;;5047548;28;20199;-82
2022/02/22 06:31:07;;;;;;;7.05;1.52;;;;;9.80;101617.00;;;;5032943;28;20196;-82
2022/02/22 06:33:35;;;;;;;6.70;1.67;;;;;9.80;101622.00;;;;5049634;28;20222;-82
2022/02/22 06:36:03;;;;;;;3.72;1.38;;;;;9.80;101618.00;;;;5050806;28;20207;-82
2022/02/22 06:38:30;;;;;;;5.68;1.42;;;;;9.90;101619.00;;;;5050044;28;20195;-83
2022/02/22 06:40:58;;;;;;;4.50;1.27;;;;;9.90;101615.00;;;;5049576;28;20249;-83
2022/02/22 06:43:26;;;;;;;10.00;1.48;;;;;9.90;101622.00;;;;5049640;28;20224;-82
2022/02/22 06:45:53;;;;;;;6.70;1.27;;;;;10.00;101632.00;;;;5050051;28;20223;-83
2022/02/22 06:48:21;;;;;;;3.45;1.15;;;;;10.00;101628.00;;;;5044291;28;20748;-81
2022/02/22 06:50:48;;;;;;;4.30;0.80;;;;;10.10;101626.00;;;;5046480;28;20199;-82
2022/02/22 06:53:15;;;;;;;3.88;0.90;;;;;10.10;101629.00;;;;5043214;28;20215;-82
2022/02/22 06:55:43;;;;;;;8.25;1.33;;;;;10.10;101623.00;;;;5057558;28;20195;-84
2022/02/22 06:58:11;;;;;;;6.60;1.25;;;;;10.10;101615.00;;;;5068406;28;20288;-82
2022/02/22 07:00:43;;;;;;;4.80;0.93;;;;;10.20;101621.00;;;;5066749;28;20199;-83
2022/02/22 07:03:10;;;;;;;10.00;2.10;;;;;10.20;101619.00;;;;5050508;28;21167;-83
2022/02/22 07:05:38;;;;;;;4.60;1.27;;;;;10.20;101606.00;;;;5034668;28;20723;-83
2022/02/22 07:08:05;;;;;;;6.25;1.65;;;;;10.30;101609.00;;;;5028176;28;20191;-80
2022/02/22 07:10:33;;;;;;;5.53;0.82;;;;;10.30;101605.00;;;;5034371;28;20230;-82
2022/02/22 07:13:00;;;;;;;3.97;0.93;;;;;10.30;101615.00;;;;5038359;28;20596;-82
2022/02/22 07:15:35;;;;;;;5.93;1.10;;;;;10.30;101604.00;;;;5051260;28;20187;-82
2022/02/22 07:18:06;;;;;;;6.40;1.65;;;;;10.40;101609.00;;;;5049542;28;20223;-81
2022/02/22 07:20:34;;;;;;;4.90;1.10;;;;;10.50;101604.00;;;;5055303;28;20192;-81
2022/02/22 07:23:02;;;;;;;10.30;1.58;;;;;10.50;101604.00;;;;5069835;28;20210;-81
2022/02/22 07:25:31;;;;;;;4.55;1.08;;;;;10.60;101590.00;;;;5069634;28;20222;-83
2022/02/22 07:28:01;;;;;;;3.95;1.10;;;;;10.60;101593.00;;;;5069061;28;20203;-82
2022/02/22 07:30:29;;;;;;;5.72;1.45;;;;;10.70;101596.00;;;;5068781;28;20192;-83
2022/02/22 07:33:00;;;;;;;9.68;1.48;;;;;10.70;101590.00;;;;5067704;28;20207;-81
2022/02/22 07:35:28;;;;;;;2.95;1.02;;;;;10.80;101581.00;;;;5068789;28;20592;-82
2022/02/22 07:37:56;;;;;;;3.25;0.93;;;;;10.80;101576.00;;;;5069225;28;20386;-81
2022/02/22 07:40:24;;;;;;;4.03;1.30;;;;;10.90;101569.00;;;;5068916;28;20202;-82
2022/02/22 07:42:51;;;;;;;13.98;2.25;;;;;11.00;101571.00;;;;5068288;28;20209;-82
2022/02/22 07:45:18;;;;;;;7.03;1.55;;;;;11.10;101567.00;;;;5067848;28;20234;-82
2022/02/22 07:47:46;;;;;;;5.68;0.95;;;;;11.10;101561.00;;;;5071655;28;20236;-82
2022/02/22 07:50:14;;;;;;;3.63;0.77;;;;;11.20;101560.00;;;;5071987;28;20199;-82
2022/02/22 07:52:42;;;;;;;3.45;1.08;;;;;11.20;101557.00;;;;5072271;28;20703;-82
2022/02/22 07:55:09;;;;;;;2.42;0.98;;;;;11.30;101547.00;;;;5071673;28;20210;-82
2022/02/22 07:57:37;;;;;;;4.50;1.45;;;;;11.30;101542.00;;;;5072028;28;20205;-82
2022/02/22 08:00:07;;;;;;;7.25;1.77;;;;;11.40;101549.00;;;;5072189;28;20201;-82
2022/02/22 08:02:35;;;;;;;5.13;1.40;;;;;11.50;101543.00;;;;5072287;28;20199;-82
2022/02/22 08:05:02;;;;;;;6.15;1.45;;;;;11.50;101528.00;;;;5072245;28;20599;-83
2022/02/22 08:07:35;;;;;;;5.22;1.40;;;;;11.60;101539.00;;;;5074780;28;20202;-83
2022/02/22 08:10:02;;;;;;;5.55;1.58;;;;;11.70;101537.00;;;;5054147;28;20202;-81
2022/02/22 08:12:30;;;;;;;5.20;1.55;;;;;11.80;101536.00;;;;5052600;28;20638;-81
2022/02/22 08:14:57;;;;;;;4.15;1.20;;;;;11.80;101546.00;;;;5052058;28;20287;-81
2022/02/22 08:17:24;;;;;;;5.30;1.00;;;;;11.90;101549.00;;;;5056188;28;20227;-81
2022/02/22 08:19:51;;;;;;;4.97;1.48;;;;;12.00;101539.00;;;;5072396;28;20202;-81
2022/02/22 08:22:19;;;;;;;8.57;1.33;;;;;12.10;101547.00;;;;5071378;28;20210;-82
2022/02/22 08:24:47;;;;;;;10.63;1.58;;;;;12.20;101537.00;;;;5072192;28;20661;-81
2022/02/22 08:27:14;;;;;;;8.73;2.15;;;;;12.20;101532.00;;;;5071786;28;20692;-82
2022/02/22 08:29:42;;;;;;;9.07;2.08;;;;;12.30;101523.00;;;;5070627;28;20203;-82
2022/02/22 08:32:09;;;;;;;7.65;1.73;;;;;12.40;101532.00;;;;5070705;28;20213;-81
2022/02/22 08:34:36;;;;;;;9.30;1.45;;;;;12.50;101532.00;;;;5071536;28;20571;-81
2022/02/22 08:37:04;;;;;;;6.00;1.85;;;;;12.50;101523.00;;;;5071413;28;20202;-82
2022/02/22 08:39:32;;;;;;;7.00;1.55;;;;;12.60;101508.00;;;;5071655;28;20203;-81
2022/02/22 08:42:06;;;;;;;9.30;2.00;;;;;12.60;101511.00;;;;5070532;28;20553;-82
2022/02/22 08:44:33;;;;;;;7.38;1.60;;;;;12.70;101497.00;;;;5071889;28;20217;-81
2022/02/22 08:47:00;;;;;;;8.10;1.45;;;;;12.70;101497.00;;;;5067016;28;20215;-81
2022/02/22 08:49:27;;;;;;;6.05;1.30;;;;;12.80;101491.00;;;;5051770;28;20206;-82
2022/02/22 08:51:55;;;;;;;6.35;1.60;;;;;12.90;101497.00;;;;5051362;28;20196;-82
2022/02/22 08:54:22;;;;;;;4.15;1.58;;;;;12.90;101496.00;;;;5051260;28;20655;-81
2022/02/22 08:56:49;;;;;;;5.40;1.73;;;;;12.90;101486.00;;;;5051720;28;20237;-82
2022/02/22 08:59:18;;;;;;;8.10;2.65;;;;;13.00;101477.00;;;;5049986;28;20199;-82
2022/02/22 09:01:45;;;;;;;9.40;2.35;;;;;13.00;101475.00;;;;5050216;28;20269;-82
2022/02/22 09:04:12;;;;;;;7.22;1.80;;;;;13.10;101475.00;;;;5050749;28;20206;-82
2022/02/22 09:06:39;;;;;;;8.40;2.40;;;;;13.20;101467.00;;;;5050318;28;20635;-82
2022/02/22 09:09:07;;;;;;;7.97;2.42;;;;;13.20;101464.00;;;;5050290;28;20207;-82
2022/02/22 09:11:34;;;;;;;9.57;1.85;;;;;13.30;101470.00;;;;5051325;28;20207;-82
2022/02/22 09:14:01;;;;;;;9.57;1.88;;;;;13.40;101463.00;;;;5051746;28;20214;-82
2022/02/22 09:16:29;;;;;;;6.85;1.83;;;;;13.40;101466.00;;;;5051273;28;20211;-82
2022/02/22 09:18:57;;;;;;;6.57;2.40;;;;;13.50;101452.00;;;;5068862;28;20231;-82
2022/02/22 09:21:24;;;;;;;10.50;2.00;;;;;13.60;101456.00;;;;5069422;28;20626;-82
2022/02/22 09:23:51;;;;;;;9.32;2.05;;;;;13.60;101461.00;;;;5069470;28;20203;-83
2022/02/22 09:26:18;;;;;;;8.43;2.50;;;;;13.70;101454.00;;;;5069394;28;20510;-82
2022/02/22 09:28:47;;;;;;;9.48;2.55;;;;;13.80;101461.00;;;;5070491;28;20210;-82
2022/02/22 09:31:14;;;;;;;6.65;2.33;;;;;13.80;101462.00;;;;5069475;28;20218;-83
2022/02/22 09:33:43;;;;;;;12.80;2.75;;;;;13.80;101464.00;;;;5063147;28;20196;-82
2022/02/22 09:36:10;;;;;;;4.97;1.95;;;;;13.90;101464.00;;;;5050708;28;20253;-82
2022/02/22 09:38:37;;;;;;;7.50;2.13;;;;;13.90;101460.00;;;;5061946;28;20677;-82
2022/02/22 09:41:05;;;;;;;8.38;3.13;;;;;13.90;101465.00;;;;5049709;28;20222;-82
2022/02/22 09:43:34;;;;;;;5.60;2.13;;;;;14.00;101466.00;;;;5049068;28;20212;-82
2022/02/22 09:46:04;;;;;;;5.05;2.65;;;;;14.00;101467.00;;;;5049926;28;20238;-81
2022/02/22 09:48:31;;;;;;;10.90;2.53;;;;;14.00;101473.00;;;;5048868;28;20199;-82
2022/02/22 09:51:00;;;;;;;13.13;2.65;;;;;14.00;101483.00;;;;5044082;28;21047;-81
2022/02/22 09:53:27;;;;;;;8.48;2.50;;;;;14.00;101482.00;;;;5029580;28;20235;-83
2022/02/22 09:55:55;;;;;;;14.10;3.45;;;;;14.00;101488.00;;;;5029146;28;20211;-83
2022/02/22 09:58:23;;;;;;;8.30;2.67;;;;;14.00;101484.00;;;;5028492;28;20765;-82
2022/02/22 10:01:00;;;;;;;13.32;2.65;;;;;14.00;101489.00;;;;5044930;28;20203;-81
2022/02/22 10:03:28;;;;;;;8.10;2.60;;;;;14.00;101480.00;;;;5049357;28;20206;-82
2022/02/22 10:05:57;;;;;;;7.45;2.53;;;;;14.10;101484.00;;;;5050051;28;20227;-83
2022/02/22 10:08:27;;;;;;;6.85;3.00;;;;;14.10;101479.00;;;;5048957;28;20241;-81
2022/02/22 10:11:02;;;;;;;7.75;2.33;;;;;14.10;101465.00;;;;5048600;28;20195;-83
2022/02/22 10:13:30;;;;;;;6.03;2.08;;;;;14.10;101451.00;;;;5048359;28;20203;-83
2022/02/22 10:15:58;;;;;;;8.40;3.05;;;;;14.20;101430.00;;;;5048416;28;20203;-83
2022/02/22 10:18:26;;;;;;;8.60;2.47;;;;;14.20;101417.00;;;;5048448;28;20259;-83
2022/02/22 10:20:54;;;;;;;8.75;2.88;;;;;14.30;101418.00;;;;5051138;28;20938;-83
2022/02/22 10:23:30;;;;;;;8.13;2.13;;;;;14.20;101420.00;;;;5067670;28;20669;-84
2022/02/22 10:25:58;;;;;;;8.73;2.35;;;;;14.30;101417.00;;;;5067669;28;20464;-83
2022/02/22 10:28:26;;;;;;;6.50;2.60;;;;;14.40;101407.00;;;;5068709;28;20210;-84
2022/02/22 10:30:54;;;;;;;7.32;2.58;;;;;14.40;101402.00;;;;5067737;28;20321;-83
2022/02/22 10:33:23;;;;;;;5.60;1.92;;;;;14.40;101398.00;;;;5068185;28;20286;-84
2022/02/22 10:35:52;;;;;;;7.35;2.13;;;;;14.50;101395.00;;;;5068479;28;20195;-84
2022/02/22 10:38:22;;;;;;;5.53;1.77;;;;;14.50;101386.00;;;;5068188;28;20252;-84
2022/02/22 10:41:01;;;;;;;10.25;3.45;;;;;14.50;101393.00;;;;5069235;28;20226;-84
2022/02/22 10:43:30;;;;;;;7.05;2.15;;;;;14.60;101372.00;;;;5068946;28;20219;-84
2022/02/22 10:46:00;;;;;;;7.40;2.20;;;;;14.60;101369.00;;;;5068038;28;20642;-83
2022/02/22 10:48:29;;;;;;;5.80;1.95;;;;;14.60;101363.00;;;;5069093;28;20191;-84
2022/02/22 10:50:57;;;;;;;8.43;2.35;;;;;14.60;101359.00;;;;5063287;28;20195;-83
2022/02/22 10:53:30;;;;;;;10.48;2.88;;;;;14.60;101363.00;;;;5049465;28;20207;-84
2022/02/22 10:56:00;;;;;;;6.03;2.10;;;;;14.60;101367.00;;;;5048019;28;20193;-84
2022/02/22 10:58:27;;;;;;;7.68;2.22;;;;;14.70;101375.00;;;;5048924;28;20592;-84
2022/02/22 11:00:55;;;;;;;6.03;2.28;;;;;14.60;101375.00;;;;5050726;28;20217;-82
2022/02/22 11:03:22;;;;;;;7.45;2.30;;;;;14.60;101378.00;;;;5048520;28;20202;-84
2022/02/22 11:05:50;;;;;;;11.13;2.47;;;;;14.60;101375.00;;;;5048613;28;20588;-84
2022/02/22 11:08:25;;;;;;;8.50;2.63;;;;;14.50;101367.00;;;;5048446;28;20199;-83
2022/02/22 11:10:57;;;;;;;11.70;3.65;;;;;14.50;101368.00;;;;5046974;28;20609;-84
2022/02/22 11:13:31;;;;;;;8.88;2.42;;;;;14.50;101371.00;;;;5048427;28;20199;-84
2022/02/22 11:16:11;;;;;;;6.90;2.50;;;;;14.40;101358.00;;;;5048867;28;20198;-84
2022/02/22 11:18:47;;;;;;;6.97;2.38;;;;;14.40;101361.00;;;;5048808;28;20250;-85
2022/02/22 11:21:16;;;;;;;7.70;2.10;;;;;14.40;101358.00;;;;5056324;28;20201;-84
2022/02/22 11:23:44;;;;;;;7.80;2.28;;;;;14.40;101337.00;;;;5072398;28;20206;-84
2022/02/22 11:26:14;;;;;;;6.07;2.00;;;;;14.40;101344.00;;;;5071778;28;20226;-84
2022/02/22 11:28:45;;;;;;;6.47;2.38;;;;;14.40;101344.00;;;;5071876;28;20203;-84
2022/02/22 11:31:15;;;;;;;9.90;2.72;;;;;14.40;101344.00;;;;5071856;28;20195;-83
2022/02/22 11:33:45;;;;;;;9.57;2.45;;;;;14.40;101349.00;;;;5071523;28;20204;-83
2022/02/22 11:36:13;;;;;;;11.80;2.45;;;;;14.40;101349.00;;;;5072418;28;20210;-85
2022/02/22 11:38:46;;;;;;;8.13;2.22;;;;;14.40;101346.00;;;;5072347;28;20218;-84
2022/02/22 11:41:19;;;;;;;6.15;2.00;;;;;14.30;101362.00;;;;5072363;28;20213;-86
2022/02/22 11:43:59;;;;;;;7.03;2.05;;;;;14.30;101348.00;;;;5072427;28;20214;-85
2022/02/22 11:46:42;;;;;;;9.60;2.65;;;;;14.20;101338.00;;;;5071807;28;20219;-84
2022/02/22 11:49:12;;;;;;;7.43;2.72;;;;;14.30;101315.00;;;;5071633;28;20294;-84
2022/02/22 11:51:41;;;;;;;7.22;2.28;;;;;14.30;101320.00;;;;5060883;28;20200;-83
2022/02/22 11:54:13;;;;;;;7.18;2.70;;;;;14.30;101330.00;;;;5065995;28;20206;-85
2022/02/22 11:56:43;;;;;;;6.25;2.40;;;;;14.40;101325.00;;;;5072061;28;20653;-85
2022/02/22 11:59:23;;;;;;;9.23;2.63;;;;;14.30;101306.00;;;;5070803;28;20216;-84
2022/02/22 12:01:58;;;;;;;20.40;3.10;;;;;14.40;101300.00;;;;5071620;28;20206;-85
2022/02/22 12:04:27;;;;;;;11.15;2.60;;;;;14.50;101300.00;;;;5072733;28;20198;-85
2022/02/22 12:06:56;;;;;;;8.05;2.80;;;;;14.50;101285.00;;;;5072282;28;20257;-85
2022/02/22 12:09:43;;;;;;;8.82;2.60;;;;;14.40;101267.00;;;;5072525;28;20198;-84
2022/02/22 12:12:12;;;;;;;7.07;2.63;;;;;14.60;101269.00;;;;5071220;28;20627;-84
2022/02/22 12:14:53;;;;;;;7.53;2.28;;;;;14.50;101245.00;;;;5071242;28;20195;-85